sensor_id;sensor_type;location;lat;lon;timestamp;P1;durP1;ratioP1;P2;durP2;ratioP2
52488;SDS011;38399;52.236;104.280;2022-10-16T00:00:28;10.82;;;5.68;;
52488;SDS011;38399;52.236;104.280;2022-10-16T00:02:54;10.45;;;5.72;;
52488;SDS011;38399;52.236;104.280;2022-10-16T00:05:21;9.20;;;5.10;;
52488;SDS011;38399;52.236;104.280;2022-10-16T00:07:48;9.43;;;5.15;;
52488;SDS011;38399;52.236;104.280;2022-10-16T00:10:14;10.48;;;5.60;;
52488;SDS011;38399;52.236;104.280;2022-10-16T00:15:07;9.63;;;5.13;;
52488;SDS011;38399;52.236;104.280;2022-10-16T00:19:59;10.30;;;5.32;;
52488;SDS011;38399;52.236;104.280;2022-10-16T00:22:45;9.82;;;4.95;;
52488;SDS011;38399;52.236;104.280;2022-10-16T00:25:12;14.07;;;5.00;;
52488;SDS011;38399;52.236;104.280;2022-10-16T00:27:38;10.07;;;4.63;;
52488;SDS011;38399;52.236;104.280;2022-10-16T00:30:04;10.68;;;5.68;;
52488;SDS011;38399;52.236;104.280;2022-10-16T00:32:31;15.02;;;6.38;;
52488;SDS011;38399;52.236;104.280;2022-10-16T00:34:57;12.93;;;6.07;;
52488;SDS011;38399;52.236;104.280;2022-10-16T00:37:23;15.82;;;8.25;;
52488;SDS011;38399;52.236;104.280;2022-10-16T00:39:51;15.30;;;7.20;;
52488;SDS011;38399;52.236;104.280;2022-10-16T00:42:17;18.17;;;7.43;;
52488;SDS011;38399;52.236;104.280;2022-10-16T00:44:52;16.17;;;7.70;;
52488;SDS011;38399;52.236;104.280;2022-10-16T00:47:22;10.27;;;6.07;;
52488;SDS011;38399;52.236;104.280;2022-10-16T00:49:50;10.57;;;6.68;;
52488;SDS011;38399;52.236;104.280;2022-10-16T00:52:22;10.27;;;5.97;;
52488;SDS011;38399;52.236;104.280;2022-10-16T00:54:49;9.80;;;5.25;;
52488;SDS011;38399;52.236;104.280;2022-10-16T00:57:16;9.38;;;4.60;;
52488;SDS011;38399;52.236;104.280;2022-10-16T00:59:42;7.80;;;4.07;;
52488;SDS011;38399;52.236;104.280;2022-10-16T01:02:10;9.40;;;3.97;;
52488;SDS011;38399;52.236;104.280;2022-10-16T01:04:41;6.90;;;3.72;;
52488;SDS011;38399;52.236;104.280;2022-10-16T01:07:20;7.15;;;3.60;;
52488;SDS011;38399;52.236;104.280;2022-10-16T01:10:06;5.32;;;3.55;;
52488;SDS011;38399;52.236;104.280;2022-10-16T01:15:14;7.20;;;3.95;;
52488;SDS011;38399;52.236;104.280;2022-10-16T01:18:18;6.20;;;3.92;;
52488;SDS011;38399;52.236;104.280;2022-10-16T01:28:57;9.40;;;4.53;;
52488;SDS011;38399;52.236;104.280;2022-10-16T01:31:30;7.75;;;5.30;;
52488;SDS011;38399;52.236;104.280;2022-10-16T01:34:14;6.25;;;3.97;;
52488;SDS011;38399;52.236;104.280;2022-10-16T01:36:45;8.73;;;4.45;;
52488;SDS011;38399;52.236;104.280;2022-10-16T01:39:21;5.55;;;3.40;;
52488;SDS011;38399;52.236;104.280;2022-10-16T01:42:05;6.20;;;4.43;;
52488;SDS011;38399;52.236;104.280;2022-10-16T01:44:53;6.63;;;4.20;;
52488;SDS011;38399;52.236;104.280;2022-10-16T01:47:22;5.97;;;3.33;;
52488;SDS011;38399;52.236;104.280;2022-10-16T01:49:50;7.80;;;4.10;;
52488;SDS011;38399;52.236;104.280;2022-10-16T01:52:20;6.18;;;4.00;;
52488;SDS011;38399;52.236;104.280;2022-10-16T01:54:50;5.88;;;4.32;;
52488;SDS011;38399;52.236;104.280;2022-10-16T01:57:20;7.10;;;4.28;;
52488;SDS011;38399;52.236;104.280;2022-10-16T01:59:52;6.00;;;4.40;;
52488;SDS011;38399;52.236;104.280;2022-10-16T02:02:22;6.13;;;4.35;;
52488;SDS011;38399;52.236;104.280;2022-10-16T02:04:53;7.20;;;4.82;;
52488;SDS011;38399;52.236;104.280;2022-10-16T02:07:24;7.40;;;4.50;;
52488;SDS011;38399;52.236;104.280;2022-10-16T02:09:50;9.25;;;4.50;;
52488;SDS011;38399;52.236;104.280;2022-10-16T02:12:27;8.13;;;4.60;;
52488;SDS011;38399;52.236;104.280;2022-10-16T02:14:56;6.05;;;4.70;;
52488;SDS011;38399;52.236;104.280;2022-10-16T02:19:49;6.00;;;4.20;;
52488;SDS011;38399;52.236;104.280;2022-10-16T02:22:38;7.90;;;4.63;;
52488;SDS011;38399;52.236;104.280;2022-10-16T02:25:17;9.48;;;4.18;;
52488;SDS011;38399;52.236;104.280;2022-10-16T02:30:33;6.72;;;4.05;;
52488;SDS011;38399;52.236;104.280;2022-10-16T02:33:05;9.23;;;4.78;;
52488;SDS011;38399;52.236;104.280;2022-10-16T02:35:35;10.38;;;4.63;;
52488;SDS011;38399;52.236;104.280;2022-10-16T02:38:03;16.23;;;7.57;;
52488;SDS011;38399;52.236;104.280;2022-10-16T02:40:31;9.68;;;4.95;;
52488;SDS011;38399;52.236;104.280;2022-10-16T02:42:58;8.85;;;4.47;;
52488;SDS011;38399;52.236;104.280;2022-10-16T02:45:25;9.32;;;4.20;;
52488;SDS011;38399;52.236;104.280;2022-10-16T02:47:52;8.90;;;4.28;;
52488;SDS011;38399;52.236;104.280;2022-10-16T02:52:44;14.18;;;4.85;;
52488;SDS011;38399;52.236;104.280;2022-10-16T02:57:37;9.00;;;3.83;;
52488;SDS011;38399;52.236;104.280;2022-10-16T03:00:08;8.90;;;3.90;;
52488;SDS011;38399;52.236;104.280;2022-10-16T03:02:37;9.05;;;4.78;;
52488;SDS011;38399;52.236;104.280;2022-10-16T03:07:29;6.95;;;4.38;;
52488;SDS011;38399;52.236;104.280;2022-10-16T03:12:22;7.10;;;2.73;;
52488;SDS011;38399;52.236;104.280;2022-10-16T03:14:48;5.45;;;2.80;;
52488;SDS011;38399;52.236;104.280;2022-10-16T03:17:14;5.30;;;2.50;;
52488;SDS011;38399;52.236;104.280;2022-10-16T03:19:42;5.20;;;3.00;;
52488;SDS011;38399;52.236;104.280;2022-10-16T03:22:08;5.00;;;3.03;;
52488;SDS011;38399;52.236;104.280;2022-10-16T03:27:00;7.03;;;2.83;;
52488;SDS011;38399;52.236;104.280;2022-10-16T03:29:26;8.98;;;3.42;;
52488;SDS011;38399;52.236;104.280;2022-10-16T03:31:55;9.05;;;3.15;;
52488;SDS011;38399;52.236;104.280;2022-10-16T03:34:21;10.30;;;4.40;;
52488;SDS011;38399;52.236;104.280;2022-10-16T03:36:48;10.93;;;6.15;;
52488;SDS011;38399;52.236;104.280;2022-10-16T03:41:40;8.35;;;3.03;;
52488;SDS011;38399;52.236;104.280;2022-10-16T03:44:06;4.00;;;2.40;;
52488;SDS011;38399;52.236;104.280;2022-10-16T03:46:32;3.45;;;2.35;;
52488;SDS011;38399;52.236;104.280;2022-10-16T03:48:59;6.90;;;2.88;;
52488;SDS011;38399;52.236;104.280;2022-10-16T03:51:26;5.78;;;2.72;;
52488;SDS011;38399;52.236;104.280;2022-10-16T03:56:19;3.22;;;2.20;;
52488;SDS011;38399;52.236;104.280;2022-10-16T03:58:45;3.85;;;2.45;;
52488;SDS011;38399;52.236;104.280;2022-10-16T04:01:12;5.47;;;2.88;;
52488;SDS011;38399;52.236;104.280;2022-10-16T04:03:38;5.72;;;4.10;;
52488;SDS011;38399;52.236;104.280;2022-10-16T04:06:04;7.50;;;3.35;;
52488;SDS011;38399;52.236;104.280;2022-10-16T04:08:30;3.65;;;2.42;;
52488;SDS011;38399;52.236;104.280;2022-10-16T04:10:59;3.00;;;1.73;;
52488;SDS011;38399;52.236;104.280;2022-10-16T04:13:26;7.85;;;1.92;;
52488;SDS011;38399;52.236;104.280;2022-10-16T04:15:52;5.55;;;1.73;;
52488;SDS011;38399;52.236;104.280;2022-10-16T04:18:19;1.92;;;1.45;;
52488;SDS011;38399;52.236;104.280;2022-10-16T04:20:45;2.67;;;1.95;;
52488;SDS011;38399;52.236;104.280;2022-10-16T04:23:11;4.07;;;1.70;;
52488;SDS011;38399;52.236;104.280;2022-10-16T04:25:38;12.68;;;3.22;;
52488;SDS011;38399;52.236;104.280;2022-10-16T04:28:04;4.22;;;2.13;;
52488;SDS011;38399;52.236;104.280;2022-10-16T04:30:30;2.22;;;1.92;;
52488;SDS011;38399;52.236;104.280;2022-10-16T04:32:59;3.25;;;2.03;;
52488;SDS011;38399;52.236;104.280;2022-10-16T04:35:26;3.67;;;1.90;;
52488;SDS011;38399;52.236;104.280;2022-10-16T04:37:52;2.55;;;1.77;;
52488;SDS011;38399;52.236;104.280;2022-10-16T04:40:18;2.80;;;2.00;;
52488;SDS011;38399;52.236;104.280;2022-10-16T04:42:45;2.58;;;1.70;;
52488;SDS011;38399;52.236;104.280;2022-10-16T04:45:11;3.25;;;1.60;;
52488;SDS011;38399;52.236;104.280;2022-10-16T04:47:37;3.95;;;1.85;;
52488;SDS011;38399;52.236;104.280;2022-10-16T04:50:04;1.95;;;1.45;;
52488;SDS011;38399;52.236;104.280;2022-10-16T04:52:30;4.82;;;1.80;;
52488;SDS011;38399;52.236;104.280;2022-10-16T04:54:57;3.20;;;1.80;;
52488;SDS011;38399;52.236;104.280;2022-10-16T04:57:29;4.28;;;1.85;;
52488;SDS011;38399;52.236;104.280;2022-10-16T04:59:56;3.13;;;1.60;;
52488;SDS011;38399;52.236;104.280;2022-10-16T05:02:22;5.70;;;2.00;;
52488;SDS011;38399;52.236;104.280;2022-10-16T05:04:48;4.72;;;1.88;;
52488;SDS011;38399;52.236;104.280;2022-10-16T05:07:15;1.88;;;1.50;;
52488;SDS011;38399;52.236;104.280;2022-10-16T05:09:41;7.68;;;2.20;;
52488;SDS011;38399;52.236;104.280;2022-10-16T05:12:07;3.42;;;2.42;;
52488;SDS011;38399;52.236;104.280;2022-10-16T05:14:33;3.15;;;1.90;;
52488;SDS011;38399;52.236;104.280;2022-10-16T05:17:00;3.05;;;2.13;;
52488;SDS011;38399;52.236;104.280;2022-10-16T05:19:26;6.88;;;1.73;;
52488;SDS011;38399;52.236;104.280;2022-10-16T05:21:52;2.20;;;1.52;;
52488;SDS011;38399;52.236;104.280;2022-10-16T05:24:19;2.08;;;1.50;;
52488;SDS011;38399;52.236;104.280;2022-10-16T05:26:45;3.63;;;1.85;;
52488;SDS011;38399;52.236;104.280;2022-10-16T05:29:11;3.92;;;2.10;;
52488;SDS011;38399;52.236;104.280;2022-10-16T05:31:37;4.95;;;1.30;;
52488;SDS011;38399;52.236;104.280;2022-10-16T05:34:04;3.50;;;1.60;;
52488;SDS011;38399;52.236;104.280;2022-10-16T05:36:30;3.40;;;1.98;;
52488;SDS011;38399;52.236;104.280;2022-10-16T05:38:57;2.55;;;1.50;;
52488;SDS011;38399;52.236;104.280;2022-10-16T05:41:23;2.30;;;1.60;;
52488;SDS011;38399;52.236;104.280;2022-10-16T05:43:51;2.47;;;1.83;;
52488;SDS011;38399;52.236;104.280;2022-10-16T05:46:18;5.78;;;3.00;;
52488;SDS011;38399;52.236;104.280;2022-10-16T05:48:45;2.05;;;1.52;;
52488;SDS011;38399;52.236;104.280;2022-10-16T05:51:12;3.25;;;1.60;;
52488;SDS011;38399;52.236;104.280;2022-10-16T05:53:40;2.80;;;1.50;;
52488;SDS011;38399;52.236;104.280;2022-10-16T05:56:07;2.10;;;1.23;;
52488;SDS011;38399;52.236;104.280;2022-10-16T05:58:37;1.95;;;1.33;;
52488;SDS011;38399;52.236;104.280;2022-10-16T06:01:07;3.20;;;1.60;;
52488;SDS011;38399;52.236;104.280;2022-10-16T06:03:37;1.88;;;1.30;;
52488;SDS011;38399;52.236;104.280;2022-10-16T06:08:38;3.05;;;1.80;;
52488;SDS011;38399;52.236;104.280;2022-10-16T06:11:06;7.60;;;2.38;;
52488;SDS011;38399;52.236;104.280;2022-10-16T06:13:34;4.38;;;2.10;;
52488;SDS011;38399;52.236;104.280;2022-10-16T06:16:01;3.78;;;1.80;;
52488;SDS011;38399;52.236;104.280;2022-10-16T06:18:29;2.40;;;1.40;;
52488;SDS011;38399;52.236;104.280;2022-10-16T06:20:56;3.85;;;2.00;;
52488;SDS011;38399;52.236;104.280;2022-10-16T06:23:23;2.70;;;1.85;;
52488;SDS011;38399;52.236;104.280;2022-10-16T06:25:50;2.65;;;1.75;;
52488;SDS011;38399;52.236;104.280;2022-10-16T06:28:16;2.75;;;1.55;;
52488;SDS011;38399;52.236;104.280;2022-10-16T06:30:43;2.95;;;1.27;;
52488;SDS011;38399;52.236;104.280;2022-10-16T06:33:12;2.70;;;1.15;;
52488;SDS011;38399;52.236;104.280;2022-10-16T06:35:38;2.03;;;1.38;;
52488;SDS011;38399;52.236;104.280;2022-10-16T06:38:04;1.42;;;1.00;;
52488;SDS011;38399;52.236;104.280;2022-10-16T06:40:31;3.08;;;1.33;;
52488;SDS011;38399;52.236;104.280;2022-10-16T06:42:57;1.05;;;0.82;;
52488;SDS011;38399;52.236;104.280;2022-10-16T06:45:23;1.42;;;1.15;;
52488;SDS011;38399;52.236;104.280;2022-10-16T06:47:50;2.95;;;1.00;;
52488;SDS011;38399;52.236;104.280;2022-10-16T06:50:16;4.78;;;1.85;;
52488;SDS011;38399;52.236;104.280;2022-10-16T06:52:42;4.65;;;1.67;;
52488;SDS011;38399;52.236;104.280;2022-10-16T06:55:08;3.22;;;1.33;;
52488;SDS011;38399;52.236;104.280;2022-10-16T06:57:34;1.42;;;1.00;;
52488;SDS011;38399;52.236;104.280;2022-10-16T07:00:00;3.33;;;1.27;;
52488;SDS011;38399;52.236;104.280;2022-10-16T07:02:29;3.08;;;0.70;;
52488;SDS011;38399;52.236;104.280;2022-10-16T07:04:55;1.48;;;0.90;;
52488;SDS011;38399;52.236;104.280;2022-10-16T07:07:22;1.05;;;0.90;;
52488;SDS011;38399;52.236;104.280;2022-10-16T07:09:50;1.63;;;0.95;;
52488;SDS011;38399;52.236;104.280;2022-10-16T07:12:16;2.22;;;1.10;;
52488;SDS011;38399;52.236;104.280;2022-10-16T07:14:43;3.15;;;1.30;;
52488;SDS011;38399;52.236;104.280;2022-10-16T07:19:36;6.00;;;1.50;;
52488;SDS011;38399;52.236;104.280;2022-10-16T07:22:03;2.20;;;1.00;;
52488;SDS011;38399;52.236;104.280;2022-10-16T07:24:30;1.80;;;1.00;;
52488;SDS011;38399;52.236;104.280;2022-10-16T07:26:56;2.13;;;0.93;;
52488;SDS011;38399;52.236;104.280;2022-10-16T07:29:22;0.95;;;0.80;;
52488;SDS011;38399;52.236;104.280;2022-10-16T07:31:49;2.35;;;1.00;;
52488;SDS011;38399;52.236;104.280;2022-10-16T07:34:15;2.17;;;1.52;;
52488;SDS011;38399;52.236;104.280;2022-10-16T07:36:44;3.80;;;0.93;;
52488;SDS011;38399;52.236;104.280;2022-10-16T07:39:12;3.65;;;1.00;;
52488;SDS011;38399;52.236;104.280;2022-10-16T07:41:39;1.88;;;0.80;;
52488;SDS011;38399;52.236;104.280;2022-10-16T07:44:05;1.17;;;0.93;;
52488;SDS011;38399;52.236;104.280;2022-10-16T07:48:59;1.60;;;1.00;;
52488;SDS011;38399;52.236;104.280;2022-10-16T07:51:25;2.13;;;1.13;;
52488;SDS011;38399;52.236;104.280;2022-10-16T07:53:52;1.73;;;0.90;;
52488;SDS011;38399;52.236;104.280;2022-10-16T07:56:19;2.47;;;0.88;;
52488;SDS011;38399;52.236;104.280;2022-10-16T07:58:46;1.08;;;0.80;;
52488;SDS011;38399;52.236;104.280;2022-10-16T08:01:15;2.08;;;0.65;;
52488;SDS011;38399;52.236;104.280;2022-10-16T08:03:45;2.58;;;0.90;;
52488;SDS011;38399;52.236;104.280;2022-10-16T08:06:13;3.05;;;1.70;;
52488;SDS011;38399;52.236;104.280;2022-10-16T08:08:40;6.95;;;2.58;;
52488;SDS011;38399;52.236;104.280;2022-10-16T08:11:06;3.40;;;1.30;;
52488;SDS011;38399;52.236;104.280;2022-10-16T08:15:59;2.05;;;0.90;;
52488;SDS011;38399;52.236;104.280;2022-10-16T08:18:25;0.90;;;0.60;;
52488;SDS011;38399;52.236;104.280;2022-10-16T08:20:56;1.35;;;0.65;;
52488;SDS011;38399;52.236;104.280;2022-10-16T08:23:24;0.80;;;0.52;;
52488;SDS011;38399;52.236;104.280;2022-10-16T08:25:55;1.13;;;0.80;;
52488;SDS011;38399;52.236;104.280;2022-10-16T08:28:22;3.45;;;0.77;;
52488;SDS011;38399;52.236;104.280;2022-10-16T08:30:49;0.98;;;0.82;;
52488;SDS011;38399;52.236;104.280;2022-10-16T08:33:15;0.80;;;0.65;;
52488;SDS011;38399;52.236;104.280;2022-10-16T08:35:41;0.60;;;0.40;;
52488;SDS011;38399;52.236;104.280;2022-10-16T08:38:07;0.30;;;0.30;;
52488;SDS011;38399;52.236;104.280;2022-10-16T08:45:48;1.65;;;0.90;;
52488;SDS011;38399;52.236;104.280;2022-10-16T08:50:48;0.60;;;0.52;;
52488;SDS011;38399;52.236;104.280;2022-10-16T08:53:19;2.78;;;1.27;;
52488;SDS011;38399;52.236;104.280;2022-10-16T08:55:50;0.40;;;0.40;;
52488;SDS011;38399;52.236;104.280;2022-10-16T08:58:22;0.55;;;0.40;;
52488;SDS011;38399;52.236;104.280;2022-10-16T09:00:55;1.58;;;0.40;;
52488;SDS011;38399;52.236;104.280;2022-10-16T09:09:09;8.13;;;1.23;;
52488;SDS011;38399;52.236;104.280;2022-10-16T09:12:03;2.65;;;0.90;;
52488;SDS011;38399;52.236;104.280;2022-10-16T09:25:18;1.30;;;0.70;;
52488;SDS011;38399;52.236;104.280;2022-10-16T09:27:48;2.38;;;0.70;;
52488;SDS011;38399;52.236;104.280;2022-10-16T09:30:18;0.95;;;0.63;;
52488;SDS011;38399;52.236;104.280;2022-10-16T09:32:48;0.73;;;0.50;;
52488;SDS011;38399;52.236;104.280;2022-10-16T09:35:22;1.65;;;0.70;;
52488;SDS011;38399;52.236;104.280;2022-10-16T09:37:57;1.25;;;0.80;;
52488;SDS011;38399;52.236;104.280;2022-10-16T09:40:24;2.70;;;0.82;;
52488;SDS011;38399;52.236;104.280;2022-10-16T09:42:54;3.50;;;1.10;;
52488;SDS011;38399;52.236;104.280;2022-10-16T09:45:34;3.78;;;1.58;;
52488;SDS011;38399;52.236;104.280;2022-10-16T09:48:01;2.03;;;1.23;;
52488;SDS011;38399;52.236;104.280;2022-10-16T09:50:38;3.45;;;1.48;;
52488;SDS011;38399;52.236;104.280;2022-10-16T09:53:11;2.55;;;1.33;;
52488;SDS011;38399;52.236;104.280;2022-10-16T09:55:49;7.95;;;2.50;;
52488;SDS011;38399;52.236;104.280;2022-10-16T10:00:48;12.57;;;5.45;;
52488;SDS011;38399;52.236;104.280;2022-10-16T10:03:36;11.68;;;5.32;;
52488;SDS011;38399;52.236;104.280;2022-10-16T10:06:06;8.68;;;4.60;;
52488;SDS011;38399;52.236;104.280;2022-10-16T10:09:02;11.68;;;5.47;;
52488;SDS011;38399;52.236;104.280;2022-10-16T10:17:12;10.57;;;3.20;;
52488;SDS011;38399;52.236;104.280;2022-10-16T10:22:23;11.93;;;4.90;;
52488;SDS011;38399;52.236;104.280;2022-10-16T10:24:57;20.05;;;7.22;;
52488;SDS011;38399;52.236;104.280;2022-10-16T10:27:34;21.73;;;7.78;;
52488;SDS011;38399;52.236;104.280;2022-10-16T10:35:58;23.65;;;8.82;;
52488;SDS011;38399;52.236;104.280;2022-10-16T10:38:47;27.58;;;8.60;;
52488;SDS011;38399;52.236;104.280;2022-10-16T10:41:27;26.45;;;9.85;;
52488;SDS011;38399;52.236;104.280;2022-10-16T10:46:58;14.35;;;6.65;;
52488;SDS011;38399;52.236;104.280;2022-10-16T10:55:03;11.43;;;5.73;;
52488;SDS011;38399;52.236;104.280;2022-10-16T11:00:34;12.48;;;5.25;;
52488;SDS011;38399;52.236;104.280;2022-10-16T11:05:49;12.90;;;5.95;;
52488;SDS011;38399;52.236;104.280;2022-10-16T11:08:35;14.73;;;5.32;;
52488;SDS011;38399;52.236;104.280;2022-10-16T11:11:08;9.00;;;4.38;;
52488;SDS011;38399;52.236;104.280;2022-10-16T11:14:01;7.65;;;4.57;;
52488;SDS011;38399;52.236;104.280;2022-10-16T11:16:30;7.40;;;4.18;;
52488;SDS011;38399;52.236;104.280;2022-10-16T11:19:11;12.00;;;4.78;;
52488;SDS011;38399;52.236;104.280;2022-10-16T11:21:51;10.30;;;4.78;;
52488;SDS011;38399;52.236;104.280;2022-10-16T11:24:41;19.92;;;5.63;;
52488;SDS011;38399;52.236;104.280;2022-10-16T11:27:30;14.43;;;5.43;;
52488;SDS011;38399;52.236;104.280;2022-10-16T11:30:05;13.60;;;6.00;;
52488;SDS011;38399;52.236;104.280;2022-10-16T11:32:49;14.32;;;5.82;;
52488;SDS011;38399;52.236;104.280;2022-10-16T11:35:19;18.17;;;8.10;;
52488;SDS011;38399;52.236;104.280;2022-10-16T11:37:50;15.82;;;6.43;;
52488;SDS011;38399;52.236;104.280;2022-10-16T11:40:30;15.45;;;6.70;;
52488;SDS011;38399;52.236;104.280;2022-10-16T11:43:10;15.52;;;6.07;;
52488;SDS011;38399;52.236;104.280;2022-10-16T11:45:44;18.25;;;6.20;;
52488;SDS011;38399;52.236;104.280;2022-10-16T11:48:18;15.95;;;6.13;;
52488;SDS011;38399;52.236;104.280;2022-10-16T11:56:06;6.55;;;3.75;;
52488;SDS011;38399;52.236;104.280;2022-10-16T11:58:47;6.32;;;3.85;;
52488;SDS011;38399;52.236;104.280;2022-10-16T12:04:17;7.53;;;2.53;;
52488;SDS011;38399;52.236;104.280;2022-10-16T12:09:24;4.03;;;2.10;;
52488;SDS011;38399;52.236;104.280;2022-10-16T12:11:52;1.98;;;1.05;;
52488;SDS011;38399;52.236;104.280;2022-10-16T12:14:21;3.60;;;1.83;;
52488;SDS011;38399;52.236;104.280;2022-10-16T12:19:56;4.63;;;2.30;;
52488;SDS011;38399;52.236;104.280;2022-10-16T12:22:25;5.53;;;3.05;;
52488;SDS011;38399;52.236;104.280;2022-10-16T12:24:55;5.40;;;2.40;;
52488;SDS011;38399;52.236;104.280;2022-10-16T12:27:30;5.15;;;2.60;;
52488;SDS011;38399;52.236;104.280;2022-10-16T12:29:59;4.07;;;2.30;;
52488;SDS011;38399;52.236;104.280;2022-10-16T12:32:36;4.15;;;2.78;;
52488;SDS011;38399;52.236;104.280;2022-10-16T12:35:20;5.55;;;3.20;;
52488;SDS011;38399;52.236;104.280;2022-10-16T12:37:52;7.85;;;3.75;;
52488;SDS011;38399;52.236;104.280;2022-10-16T12:40:38;9.77;;;5.03;;
52488;SDS011;38399;52.236;104.280;2022-10-16T12:46:02;8.02;;;4.57;;
52488;SDS011;38399;52.236;104.280;2022-10-16T12:48:31;10.02;;;4.28;;
52488;SDS011;38399;52.236;104.280;2022-10-16T12:51:09;7.90;;;4.25;;
52488;SDS011;38399;52.236;104.280;2022-10-16T12:53:59;9.57;;;4.65;;
52488;SDS011;38399;52.236;104.280;2022-10-16T12:56:37;7.85;;;4.03;;
52488;SDS011;38399;52.236;104.280;2022-10-16T12:59:28;8.07;;;3.75;;
52488;SDS011;38399;52.236;104.280;2022-10-16T13:02:35;8.80;;;3.75;;
52488;SDS011;38399;52.236;104.280;2022-10-16T13:05:25;10.63;;;3.88;;
52488;SDS011;38399;52.236;104.280;2022-10-16T13:08:11;8.23;;;3.53;;
52488;SDS011;38399;52.236;104.280;2022-10-16T13:11:15;9.02;;;3.63;;
52488;SDS011;38399;52.236;104.280;2022-10-16T13:16:57;6.70;;;3.65;;
52488;SDS011;38399;52.236;104.280;2022-10-16T13:25:27;8.52;;;3.25;;
52488;SDS011;38399;52.236;104.280;2022-10-16T13:28:05;14.50;;;5.13;;
52488;SDS011;38399;52.236;104.280;2022-10-16T13:33:17;14.70;;;5.07;;
52488;SDS011;38399;52.236;104.280;2022-10-16T13:35:52;11.32;;;3.78;;
52488;SDS011;38399;52.236;104.280;2022-10-16T13:38:23;8.05;;;3.85;;
52488;SDS011;38399;52.236;104.280;2022-10-16T13:40:58;7.13;;;3.20;;
52488;SDS011;38399;52.236;104.280;2022-10-16T13:43:37;8.55;;;3.78;;
52488;SDS011;38399;52.236;104.280;2022-10-16T13:48:41;7.05;;;3.67;;
52488;SDS011;38399;52.236;104.280;2022-10-16T13:51:16;7.90;;;3.38;;
52488;SDS011;38399;52.236;104.280;2022-10-16T13:53:44;4.65;;;2.95;;
52488;SDS011;38399;52.236;104.280;2022-10-16T13:56:15;7.72;;;3.65;;
52488;SDS011;38399;52.236;104.280;2022-10-16T13:58:44;10.25;;;3.20;;
52488;SDS011;38399;52.236;104.280;2022-10-16T14:03:59;8.07;;;3.95;;
52488;SDS011;38399;52.236;104.280;2022-10-16T14:06:42;8.15;;;4.25;;
52488;SDS011;38399;52.236;104.280;2022-10-16T14:09:25;12.73;;;5.05;;
52488;SDS011;38399;52.236;104.280;2022-10-16T14:11:58;13.45;;;5.10;;
52488;SDS011;38399;52.236;104.280;2022-10-16T14:14:31;12.70;;;4.88;;
52488;SDS011;38399;52.236;104.280;2022-10-16T14:17:05;10.67;;;4.57;;
52488;SDS011;38399;52.236;104.280;2022-10-16T14:19:31;8.57;;;4.22;;
52488;SDS011;38399;52.236;104.280;2022-10-16T14:21:59;11.20;;;4.03;;
52488;SDS011;38399;52.236;104.280;2022-10-16T14:24:31;9.45;;;3.72;;
52488;SDS011;38399;52.236;104.280;2022-10-16T14:27:00;7.22;;;3.47;;
52488;SDS011;38399;52.236;104.280;2022-10-16T14:29:28;4.53;;;2.40;;
52488;SDS011;38399;52.236;104.280;2022-10-16T14:32:01;6.22;;;2.60;;
52488;SDS011;38399;52.236;104.280;2022-10-16T14:34:36;4.47;;;2.22;;
52488;SDS011;38399;52.236;104.280;2022-10-16T14:39:32;7.40;;;2.70;;
52488;SDS011;38399;52.236;104.280;2022-10-16T14:44:27;4.82;;;2.78;;
52488;SDS011;38399;52.236;104.280;2022-10-16T14:46:57;7.28;;;2.92;;
52488;SDS011;38399;52.236;104.280;2022-10-16T14:49:26;6.78;;;4.00;;
52488;SDS011;38399;52.236;104.280;2022-10-16T14:51:53;9.63;;;4.30;;
52488;SDS011;38399;52.236;104.280;2022-10-16T14:56:47;9.32;;;4.03;;
52488;SDS011;38399;52.236;104.280;2022-10-16T15:01:56;8.18;;;4.13;;
52488;SDS011;38399;52.236;104.280;2022-10-16T15:04:22;7.22;;;3.40;;
52488;SDS011;38399;52.236;104.280;2022-10-16T15:06:49;9.20;;;3.55;;
52488;SDS011;38399;52.236;104.280;2022-10-16T15:09:15;24.05;;;5.03;;
52488;SDS011;38399;52.236;104.280;2022-10-16T15:11:42;7.40;;;3.20;;
52488;SDS011;38399;52.236;104.280;2022-10-16T15:14:10;5.90;;;3.17;;
52488;SDS011;38399;52.236;104.280;2022-10-16T15:16:39;5.88;;;3.40;;
52488;SDS011;38399;52.236;104.280;2022-10-16T15:19:06;4.47;;;2.65;;
52488;SDS011;38399;52.236;104.280;2022-10-16T15:21:32;5.57;;;2.70;;
52488;SDS011;38399;52.236;104.280;2022-10-16T15:23:59;4.55;;;2.53;;
52488;SDS011;38399;52.236;104.280;2022-10-16T15:26:26;3.83;;;2.35;;
52488;SDS011;38399;52.236;104.280;2022-10-16T15:28:54;3.53;;;2.40;;
52488;SDS011;38399;52.236;104.280;2022-10-16T15:33:54;5.17;;;2.70;;
52488;SDS011;38399;52.236;104.280;2022-10-16T15:36:28;3.50;;;2.70;;
52488;SDS011;38399;52.236;104.280;2022-10-16T15:39:00;5.40;;;2.70;;
52488;SDS011;38399;52.236;104.280;2022-10-16T15:41:26;5.78;;;2.80;;
52488;SDS011;38399;52.236;104.280;2022-10-16T15:43:52;4.32;;;2.70;;
52488;SDS011;38399;52.236;104.280;2022-10-16T15:46:19;3.70;;;2.60;;
52488;SDS011;38399;52.236;104.280;2022-10-16T15:48:48;4.05;;;2.45;;
52488;SDS011;38399;52.236;104.280;2022-10-16T15:51:16;3.92;;;2.45;;
52488;SDS011;38399;52.236;104.280;2022-10-16T15:53:43;4.75;;;2.65;;
52488;SDS011;38399;52.236;104.280;2022-10-16T15:56:12;4.82;;;2.35;;
52488;SDS011;38399;52.236;104.280;2022-10-16T15:58:40;6.65;;;2.40;;
52488;SDS011;38399;52.236;104.280;2022-10-16T16:01:07;3.90;;;2.50;;
52488;SDS011;38399;52.236;104.280;2022-10-16T16:03:35;5.25;;;2.35;;
52488;SDS011;38399;52.236;104.280;2022-10-16T16:06:03;4.18;;;2.33;;
52488;SDS011;38399;52.236;104.280;2022-10-16T16:08:33;4.53;;;2.47;;
52488;SDS011;38399;52.236;104.280;2022-10-16T16:11:02;3.90;;;2.45;;
52488;SDS011;38399;52.236;104.280;2022-10-16T16:13:33;4.20;;;2.33;;
52488;SDS011;38399;52.236;104.280;2022-10-16T16:16:00;3.17;;;2.20;;
52488;SDS011;38399;52.236;104.280;2022-10-16T16:18:26;2.70;;;2.20;;
52488;SDS011;38399;52.236;104.280;2022-10-16T16:20:54;5.05;;;2.15;;
52488;SDS011;38399;52.236;104.280;2022-10-16T16:23:20;2.00;;;1.73;;
52488;SDS011;38399;52.236;104.280;2022-10-16T16:28:37;2.58;;;1.98;;
52488;SDS011;38399;52.236;104.280;2022-10-16T16:31:05;2.58;;;1.85;;
52488;SDS011;38399;52.236;104.280;2022-10-16T16:33:31;3.42;;;2.25;;
52488;SDS011;38399;52.236;104.280;2022-10-16T16:35:59;2.40;;;1.85;;
52488;SDS011;38399;52.236;104.280;2022-10-16T16:38:26;4.35;;;2.00;;
52488;SDS011;38399;52.236;104.280;2022-10-16T16:40:53;2.15;;;1.92;;
52488;SDS011;38399;52.236;104.280;2022-10-16T16:43:24;2.08;;;1.80;;
52488;SDS011;38399;52.236;104.280;2022-10-16T16:45:52;4.63;;;2.10;;
52488;SDS011;38399;52.236;104.280;2022-10-16T16:48:20;2.55;;;1.73;;
52488;SDS011;38399;52.236;104.280;2022-10-16T16:50:46;4.38;;;2.10;;
52488;SDS011;38399;52.236;104.280;2022-10-16T16:53:13;2.55;;;1.80;;
52488;SDS011;38399;52.236;104.280;2022-10-16T16:55:39;2.60;;;1.90;;
52488;SDS011;38399;52.236;104.280;2022-10-16T16:58:05;3.53;;;1.80;;
52488;SDS011;38399;52.236;104.280;2022-10-16T17:00:31;2.50;;;1.63;;
52488;SDS011;38399;52.236;104.280;2022-10-16T17:02:58;3.40;;;1.70;;
52488;SDS011;38399;52.236;104.280;2022-10-16T17:05:24;2.80;;;1.90;;
52488;SDS011;38399;52.236;104.280;2022-10-16T17:07:51;3.03;;;2.65;;